DeKalb Peachtree Airport
KPDK : now visible

Airfield :











YOU CAN JOIN US ON...

 
LOGIN :

Register | Disclaimer

   EN    FR    IT 

 









Legend :    VFR   Marginal VFR   IFR   Intensive IFR   Very Intensive IFR
Visi :
Ceiling :
>= 8 km
>= 3000ft
5 to 8 km
1000 to 3000 ft
1500m to 5 km
500 to 1000 ft
800 to 1500m
200 to 500 ft
< 800m
< 200 ft
Symbols :   Thunderstorms  Fog  Heavy snow  Heavy precipitations  Wind > 20 kt






- Airport Elevation : 1003 ft


KPDK - DeKalb Peachtree

CURRENT METAR :
  • 191346Z 00000KT 2SM RA BR SCT029 BKN075 OVC120 22/22 A3013 RMK AO2 RAB12 P0005 T02170217

EXPIRED METARs :
  • 191253Z VRB03KT 7SM FEW029 SCT050 SCT075 22/21 A3011 RMK AO2 SLP182 T02170211
  • 191153Z 09003KT 7SM SCT042 BKN060 22/21 A3011 RMK AO2 SLP181 60002 70009 T02170211 10228 20217 51008
  • 191053Z 00000KT 7SM BKN048 OVC060 22/21 A3010 RMK AO2 SLP178 T02170211

TAF KPDK
Valid from the 19 at 14:00 until the 20 at 12:00 UTC


191353Z 1914/2012 VRB03KT 6SM SHRA BR SCT005 BKN025 BKN100
TEMPO 1914/1915 3SM BR BKN005
FM191500 10005KT P6SM VCSH SCT015 OVC025
FM191800 11005KT P6SM VCSH SCT025 OVC035
TEMPO 1922/2002 3SM SHRA BKN015
FM200200 09004KT 6SM SHRA BR SCT025 OVC060
FM200600 11005KT 6SM SHRA BR OVC008
FM201100 09007KT 6SM SHRA BR OVC006
KZTL FIR / North America



MET'MAP, your aeronautical weather chart ! - Copyright ORBIFLY December 2007 - Disclaimer

ORBIFLY MET'MAP TEAM :

Programming & Development : Alexandra Zaïnal
Concept & original design : Baudouin d'Aumeries
Assistance for programming : Marc-Olivier Méhu
Technical & hardware support : Manuel Goepfert

Contact : metmap@orbifly.com




SOURCES & CREDITS :

   NOAA       Earth
Advisory